This is the latest recevied weather packets stored in our database for station/object N9JXN-13. If no packets are shown the sender has not sent any weather packets the latest 10 day(s).
| Time | Temp. | Humidity | Pressure | Rain* | Wind** | Luminosity | Snow |
|---|---|---|---|---|---|---|---|
| 1777835361 | 20° C | 41% | 1009 hPa | 0 mm | - | 350 W/m² | - |
| 1777834161 | 18.89° C | 43% | 1009.2 hPa | 0 mm | - | 870 W/m² | - |
| 1777830561 | 14.44° C | 64% | 1010.8 hPa | 0 mm | - | 418 W/m² | - |
| 1777829361 | 13.33° C | 66% | 1011.7 hPa | 0 mm | - | 137 W/m² | - |
| 1777827260 | 12.22° C | 70% | 1012.7 hPa | 0.25 mm | - | 127 W/m² | - |
| 1777826361 | 11.67° C | 69% | 1012.8 hPa | 0.25 mm | - | 83 W/m² | - |
| 1777824861 | 11.11° C | 77% | 1013 hPa | 0.25 mm | - | 142 W/m² | - |
| 1777824560 | 11.11° C | 76% | 1013.1 hPa | 0.25 mm | - | 149 W/m² | - |
| 1777822461 | 10.56° C | 75% | 1014.1 hPa | 0 mm | - | 84 W/m² | - |
| 1777821561 | 10° C | 80% | 1014 hPa | 0 mm | - | 91 W/m² | - |
| 1777820360 | 10° C | 80% | 1014.4 hPa | 0 mm | - | 54 W/m² | - |
| 1777819160 | 11.11° C | 66% | 1014.6 hPa | 0 mm | - | 53 W/m² | - |
| 1777813460 | 10.56° C | 64% | 1014.7 hPa | 0 mm | - | 67 W/m² | - |
| 1777812860 | 10.56° C | 64% | 1014.8 hPa | 0 mm | - | 113 W/m² | - |
| 1777811360 | 10° C | 66% | 1014.8 hPa | 0 mm | - | 98 W/m² | - |
| 1777806260 | 7.78° C | 66% | 1014.5 hPa | 0 mm | - | 14 W/m² | - |
| 1777805360 | 7.78° C | 67% | 1014.7 hPa | 0 mm | - | 5 W/m² | - |
| 1777805061 | 7.78° C | 67% | 1014.6 hPa | 0 mm | - | 0 W/m² | - |
| 1777804161 | 7.78° C | 66% | 1014.8 hPa | 0 mm | - | 0 W/m² | - |
| 1777802060 | 7.78° C | 67% | 1014.8 hPa | 0 mm | - | 0 W/m² | - |
| 1777801760 | 7.78° C | 67% | 1014.9 hPa | 0 mm | - | 0 W/m² | - |
| 1777799960 | 7.78° C | 67% | 1015.2 hPa | 0 mm | - | 0 W/m² | - |
| 1777794561 | 7.78° C | 64% | 1015.2 hPa | 0 mm | - | 0 W/m² | - |
| 1777793959 | 7.78° C | 64% | 1015.3 hPa | 0 mm | - | 0 W/m² | - |
| 1777791260 | 7.78° C | 61% | 1015.6 hPa | 0 mm | - | 0 W/m² | - |
* Rain latest hour (hover to see other rain measurements)
** Current wind speed in m/s (hover to see current wind gust speed)